sensor_id;sensor_type;location;lat;lon;timestamp;pressure;altitude;pressure_sealevel;temperature;humidity
22283;BME280;11310;51.528;21.204;2023-03-04T00:02:24;99797.44;;;0.62;100.00
22283;BME280;11310;51.528;21.204;2023-03-04T00:04:53;99794.88;;;0.61;100.00
22283;BME280;11310;51.528;21.204;2023-03-04T00:07:22;99793.16;;;0.60;100.00
22283;BME280;11310;51.528;21.204;2023-03-04T00:09:51;99781.97;;;0.61;100.00
22283;BME280;11310;51.528;21.204;2023-03-04T00:12:21;99785.41;;;0.61;100.00
22283;BME280;11310;51.528;21.204;2023-03-04T00:14:50;99774.19;;;0.64;100.00
22283;BME280;11310;51.528;21.204;2023-03-04T00:17:19;99769.03;;;0.64;100.00
22283;BME280;11310;51.528;21.204;2023-03-04T00:19:49;99771.63;;;0.62;100.00
22283;BME280;11310;51.528;21.204;2023-03-04T00:22:17;99763.91;;;0.61;100.00
22283;BME280;11310;51.528;21.204;2023-03-04T00:24:46;99773.38;;;0.60;100.00
22283;BME280;11310;51.528;21.204;2023-03-04T00:27:15;99752.75;;;0.60;100.00
22283;BME280;11310;51.528;21.204;2023-03-04T00:29:46;99748.41;;;0.61;100.00
22283;BME280;11310;51.528;21.204;2023-03-04T00:32:15;99744.13;;;0.61;100.00
22283;BME280;11310;51.528;21.204;2023-03-04T00:34:44;99741.53;;;0.63;100.00
22283;BME280;11310;51.528;21.204;2023-03-04T00:37:14;99731.22;;;0.63;100.00
22283;BME280;11310;51.528;21.204;2023-03-04T00:39:43;99732.91;;;0.64;100.00
22283;BME280;11310;51.528;21.204;2023-03-04T00:42:12;99724.31;;;0.62;100.00
22283;BME280;11310;51.528;21.204;2023-03-04T00:44:40;99724.31;;;0.62;100.00
22283;BME280;11310;51.528;21.204;2023-03-04T00:47:11;99715.72;;;0.63;100.00
22283;BME280;11310;51.528;21.204;2023-03-04T00:49:39;99709.69;;;0.64;100.00
22283;BME280;11310;51.528;21.204;2023-03-04T00:52:08;99710.50;;;0.66;100.00
22283;BME280;11310;51.528;21.204;2023-03-04T00:54:37;99705.38;;;0.64;100.00
22283;BME280;11310;51.528;21.204;2023-03-04T00:57:06;99701.09;;;0.62;100.00
22283;BME280;11310;51.528;21.204;2023-03-04T00:59:35;99698.50;;;0.62;100.00
22283;BME280;11310;51.528;21.204;2023-03-04T01:02:03;99701.97;;;0.61;100.00
22283;BME280;11310;51.528;21.204;2023-03-04T01:04:34;99706.28;;;0.60;100.00
22283;BME280;11310;51.528;21.204;2023-03-04T01:07:04;99704.56;;;0.59;100.00
22283;BME280;11310;51.528;21.204;2023-03-04T01:09:33;99705.44;;;0.60;100.00
22283;BME280;11310;51.528;21.204;2023-03-04T01:12:02;99709.72;;;0.59;100.00
22283;BME280;11310;51.528;21.204;2023-03-04T01:14:32;99705.44;;;0.60;100.00
22283;BME280;11310;51.528;21.204;2023-03-04T01:17:01;99698.56;;;0.59;100.00
22283;BME280;11310;51.528;21.204;2023-03-04T01:19:30;99685.72;;;0.52;100.00
22283;BME280;11310;51.528;21.204;2023-03-04T01:22:01;99691.72;;;0.56;100.00
22283;BME280;11310;51.528;21.204;2023-03-04T01:24:30;99688.28;;;0.56;100.00
22283;BME280;11310;51.528;21.204;2023-03-04T01:26:58;99691.69;;;0.58;100.00
22283;BME280;11310;51.528;21.204;2023-03-04T01:29:27;99677.91;;;0.59;100.00
22283;BME280;11310;51.528;21.204;2023-03-04T01:31:56;99682.22;;;0.58;100.00
22283;BME280;11310;51.528;21.204;2023-03-04T01:34:25;99675.38;;;0.56;100.00
22283;BME280;11310;51.528;21.204;2023-03-04T01:36:55;99665.94;;;0.55;100.00
22283;BME280;11310;51.528;21.204;2023-03-04T01:39:25;99666.78;;;0.55;100.00
22283;BME280;11310;51.528;21.204;2023-03-04T01:41:54;99663.31;;;0.58;100.00
22283;BME280;11310;51.528;21.204;2023-03-04T01:44:23;99660.69;;;0.59;100.00
22283;BME280;11310;51.528;21.204;2023-03-04T01:46:53;99646.97;;;0.59;100.00
22283;BME280;11310;51.528;21.204;2023-03-04T01:49:24;99644.38;;;0.57;100.00
22283;BME280;11310;51.528;21.204;2023-03-04T01:51:53;99643.53;;;0.57;100.00
22283;BME280;11310;51.528;21.204;2023-03-04T01:54:23;99642.69;;;0.58;100.00
22283;BME280;11310;51.528;21.204;2023-03-04T01:56:53;99646.09;;;0.58;100.00
22283;BME280;11310;51.528;21.204;2023-03-04T01:59:24;99645.25;;;0.58;100.00
22283;BME280;11310;51.528;21.204;2023-03-04T02:01:54;99638.34;;;0.58;100.00
22283;BME280;11310;51.528;21.204;2023-03-04T02:04:25;99643.50;;;0.60;100.00
22283;BME280;11310;51.528;21.204;2023-03-04T02:06:55;99636.63;;;0.59;100.00
22283;BME280;11310;51.528;21.204;2023-03-04T02:09:27;99643.50;;;0.60;100.00
22283;BME280;11310;51.528;21.204;2023-03-04T02:11:58;99638.34;;;0.60;100.00
22283;BME280;11310;51.528;21.204;2023-03-04T02:14:28;99628.00;;;0.60;100.00
22283;BME280;11310;51.528;21.204;2023-03-04T02:16:57;99619.41;;;0.61;100.00
22283;BME280;11310;51.528;21.204;2023-03-04T02:19:37;99618.50;;;0.62;100.00
22283;BME280;11310;51.528;21.204;2023-03-04T02:22:09;99610.75;;;0.65;100.00
22283;BME280;11310;51.528;21.204;2023-03-04T02:24:42;99600.41;;;0.65;100.00
22283;BME280;11310;51.528;21.204;2023-03-04T02:27:13;99609.03;;;0.65;100.00
22283;BME280;11310;51.528;21.204;2023-03-04T02:29:42;99596.94;;;0.67;100.00
22283;BME280;11310;51.528;21.204;2023-03-04T02:32:12;99604.66;;;0.70;100.00
22283;BME280;11310;51.528;21.204;2023-03-04T02:34:46;99593.44;;;0.71;100.00
22283;BME280;11310;51.528;21.204;2023-03-04T02:37:17;99599.50;;;0.70;100.00
22283;BME280;11310;51.528;21.204;2023-03-04T02:39:51;99591.78;;;0.69;100.00
22283;BME280;11310;51.528;21.204;2023-03-04T02:42:21;99579.66;;;0.72;100.00
22283;BME280;11310;51.528;21.204;2023-03-04T02:44:58;99571.03;;;0.75;100.00
22283;BME280;11310;51.528;21.204;2023-03-04T02:47:28;99557.28;;;0.76;100.00
22283;BME280;11310;51.528;21.204;2023-03-04T02:49:57;99528.03;;;0.74;100.00
22283;BME280;11310;51.528;21.204;2023-03-04T02:52:27;99523.72;;;0.76;100.00
22283;BME280;11310;51.528;21.204;2023-03-04T02:54:57;99522.84;;;0.77;100.00
22283;BME280;11310;51.528;21.204;2023-03-04T02:57:27;99521.97;;;0.78;100.00
22283;BME280;11310;51.528;21.204;2023-03-04T02:59:56;99520.19;;;0.80;100.00
22283;BME280;11310;51.528;21.204;2023-03-04T03:02:27;99517.59;;;0.80;100.00
22283;BME280;11310;51.528;21.204;2023-03-04T03:04:57;99515.88;;;0.82;100.00
22283;BME280;11310;51.528;21.204;2023-03-04T03:07:27;99510.72;;;0.82;100.00
22283;BME280;11310;51.528;21.204;2023-03-04T03:09:58;99512.38;;;0.84;100.00
22283;BME280;11310;51.528;21.204;2023-03-04T03:12:30;99502.91;;;0.85;100.00
22283;BME280;11310;51.528;21.204;2023-03-04T03:14:59;99491.72;;;0.86;100.00
22283;BME280;11310;51.528;21.204;2023-03-04T03:17:28;99474.50;;;0.85;100.00
22283;BME280;11310;51.528;21.204;2023-03-04T03:19:57;99478.81;;;0.86;100.00
22283;BME280;11310;51.528;21.204;2023-03-04T03:22:26;99480.53;;;0.85;100.00
22283;BME280;11310;51.528;21.204;2023-03-04T03:24:55;99459.00;;;0.86;100.00
22283;BME280;11310;51.528;21.204;2023-03-04T03:27:26;99458.16;;;0.86;100.00
22283;BME280;11310;51.528;21.204;2023-03-04T03:29:57;99456.41;;;0.86;100.00
22283;BME280;11310;51.528;21.204;2023-03-04T03:32:27;99457.28;;;0.87;100.00
22283;BME280;11310;51.528;21.204;2023-03-04T03:34:55;99458.97;;;0.89;100.00
22283;BME280;11310;51.528;21.204;2023-03-04T03:37:24;99443.44;;;0.91;100.00
22283;BME280;11310;51.528;21.204;2023-03-04T03:39:53;99440.88;;;0.91;100.00
22283;BME280;11310;51.528;21.204;2023-03-04T03:42:22;99443.44;;;0.91;100.00
22283;BME280;11310;51.528;21.204;2023-03-04T03:44:51;99439.13;;;0.91;100.00
22283;BME280;11310;51.528;21.204;2023-03-04T03:47:21;99438.22;;;0.94;100.00
22283;BME280;11310;51.528;21.204;2023-03-04T03:49:51;99430.44;;;0.95;100.00
22283;BME280;11310;51.528;21.204;2023-03-04T03:52:20;99429.63;;;0.95;100.00
22283;BME280;11310;51.528;21.204;2023-03-04T03:54:49;99450.19;;;0.98;100.00
22283;BME280;11310;51.528;21.204;2023-03-04T03:57:18;99453.66;;;0.97;100.00
22283;BME280;11310;51.528;21.204;2023-03-04T03:59:49;99458.00;;;0.96;100.00
22283;BME280;11310;51.528;21.204;2023-03-04T04:02:17;99464.00;;;0.97;100.00
22283;BME280;11310;51.528;21.204;2023-03-04T04:04:49;99469.16;;;0.97;100.00
22283;BME280;11310;51.528;21.204;2023-03-04T04:07:19;99463.09;;;0.98;100.00
22283;BME280;11310;51.528;21.204;2023-03-04T04:09:50;99471.69;;;1.01;100.00
22283;BME280;11310;51.528;21.204;2023-03-04T04:12:19;99467.31;;;1.03;100.00
22283;BME280;11310;51.528;21.204;2023-03-04T04:14:48;99470.72;;;1.05;100.00
22283;BME280;11310;51.528;21.204;2023-03-04T04:17:17;99475.00;;;1.08;100.00
22283;BME280;11310;51.528;21.204;2023-03-04T04:19:46;99470.66;;;1.10;100.00
22283;BME280;11310;51.528;21.204;2023-03-04T04:22:18;99466.34;;;1.10;100.00
22283;BME280;11310;51.528;21.204;2023-03-04T04:24:47;99468.88;;;1.13;100.00
22283;BME280;11310;51.528;21.204;2023-03-04T04:27:16;99469.66;;;1.17;100.00
22283;BME280;11310;51.528;21.204;2023-03-04T04:29:44;99469.59;;;1.20;100.00
22283;BME280;11310;51.528;21.204;2023-03-04T04:32:12;99466.19;;;1.19;100.00
22283;BME280;11310;51.528;21.204;2023-03-04T04:34:41;99472.19;;;1.20;100.00
22283;BME280;11310;51.528;21.204;2023-03-04T04:37:09;99473.06;;;1.20;100.00
22283;BME280;11310;51.528;21.204;2023-03-04T04:39:39;99472.19;;;1.21;100.00
22283;BME280;11310;51.528;21.204;2023-03-04T04:42:09;99463.56;;;1.21;100.00
22283;BME280;11310;51.528;21.204;2023-03-04T04:44:38;99469.59;;;1.21;100.00
22283;BME280;11310;51.528;21.204;2023-03-04T04:47:06;99476.47;;;1.21;100.00
22283;BME280;11310;51.528;21.204;2023-03-04T04:49:35;99472.16;;;1.23;100.00
22283;BME280;11310;51.528;21.204;2023-03-04T04:52:03;99464.38;;;1.24;100.00
22283;BME280;11310;51.528;21.204;2023-03-04T04:54:32;99472.06;;;1.26;100.00
22283;BME280;11310;51.528;21.204;2023-03-04T04:57:02;99468.63;;;1.27;100.00
22283;BME280;11310;51.528;21.204;2023-03-04T04:59:32;99461.69;;;1.29;100.00
22283;BME280;11310;51.528;21.204;2023-03-04T05:02:00;99472.03;;;1.29;100.00
22283;BME280;11310;51.528;21.204;2023-03-04T05:04:29;99471.09;;;1.33;100.00
22283;BME280;11310;51.528;21.204;2023-03-04T05:06:58;99464.22;;;1.33;100.00
22283;BME280;11310;51.528;21.204;2023-03-04T05:09:27;99468.50;;;1.34;100.00
22283;BME280;11310;51.528;21.204;2023-03-04T05:11:56;99473.63;;;1.36;100.00
22283;BME280;11310;51.528;21.204;2023-03-04T05:14:27;99464.16;;;1.35;100.00
22283;BME280;11310;51.528;21.204;2023-03-04T05:16:56;99471.88;;;1.38;100.00
22283;BME280;11310;51.528;21.204;2023-03-04T05:19:25;99462.41;;;1.38;100.00
22283;BME280;11310;51.528;21.204;2023-03-04T05:21:54;99458.91;;;1.41;100.00
22283;BME280;11310;51.528;21.204;2023-03-04T05:24:22;99461.50;;;1.41;100.00
22283;BME280;11310;51.528;21.204;2023-03-04T05:26:51;99459.78;;;1.40;100.00
22283;BME280;11310;51.528;21.204;2023-03-04T05:29:19;99469.25;;;1.41;100.00
22283;BME280;11310;51.528;21.204;2023-03-04T05:31:51;99460.63;;;1.40;100.00
22283;BME280;11310;51.528;21.204;2023-03-04T05:34:19;99463.16;;;1.43;100.00
22283;BME280;11310;51.528;21.204;2023-03-04T05:36:48;99459.69;;;1.44;100.00
22283;BME280;11310;51.528;21.204;2023-03-04T05:39:17;99463.13;;;1.45;100.00
22283;BME280;11310;51.528;21.204;2023-03-04T05:41:46;99458.75;;;1.48;100.00
22283;BME280;11310;51.528;21.204;2023-03-04T05:44:15;99452.69;;;1.51;100.00
22283;BME280;11310;51.528;21.204;2023-03-04T05:46:43;99463.00;;;1.52;100.00
22283;BME280;11310;51.528;21.204;2023-03-04T05:49:13;99463.81;;;1.53;100.00
22283;BME280;11310;51.528;21.204;2023-03-04T05:51:43;99464.69;;;1.53;100.00
22283;BME280;11310;51.528;21.204;2023-03-04T05:54:13;99468.06;;;1.55;100.00
22283;BME280;11310;51.528;21.204;2023-03-04T05:56:44;99450.06;;;1.52;100.00
22283;BME280;11310;51.528;21.204;2023-03-04T05:59:12;99454.25;;;1.58;100.00
22283;BME280;11310;51.528;21.204;2023-03-04T06:01:46;99465.44;;;1.60;100.00
22283;BME280;11310;51.528;21.204;2023-03-04T06:04:17;99464.53;;;1.61;100.00
22283;BME280;11310;51.528;21.204;2023-03-04T06:06:45;99455.91;;;1.62;100.00
22283;BME280;11310;51.528;21.204;2023-03-04T06:09:14;99455.88;;;1.63;100.00
22283;BME280;11310;51.528;21.204;2023-03-04T06:11:43;99459.25;;;1.67;100.00
22283;BME280;11310;51.528;21.204;2023-03-04T06:14:12;99452.31;;;1.69;100.00
22283;BME280;11310;51.528;21.204;2023-03-04T06:16:40;99459.19;;;1.70;100.00
22283;BME280;11310;51.528;21.204;2023-03-04T06:19:09;99460.03;;;1.72;100.00
22283;BME280;11310;51.528;21.204;2023-03-04T06:21:42;99452.28;;;1.72;100.00
22283;BME280;11310;51.528;21.204;2023-03-04T06:24:10;99459.13;;;1.73;100.00
22283;BME280;11310;51.528;21.204;2023-03-04T06:26:39;99461.72;;;1.73;100.00
22283;BME280;11310;51.528;21.204;2023-03-04T06:29:09;99459.94;;;1.75;100.00
22283;BME280;11310;51.528;21.204;2023-03-04T06:31:37;99452.19;;;1.75;100.00
22283;BME280;11310;51.528;21.204;2023-03-04T06:34:08;99440.16;;;1.74;100.00
22283;BME280;11310;51.528;21.204;2023-03-04T06:36:36;99437.53;;;1.75;100.00
22283;BME280;11310;51.528;21.204;2023-03-04T06:39:08;99435.88;;;1.73;100.00
22283;BME280;11310;51.528;21.204;2023-03-04T06:41:37;99434.97;;;1.75;100.00
22283;BME280;11310;51.528;21.204;2023-03-04T06:44:06;99427.22;;;1.74;100.00
22283;BME280;11310;51.528;21.204;2023-03-04T06:46:35;99442.72;;;1.75;100.00
22283;BME280;11310;51.528;21.204;2023-03-04T06:49:04;99426.34;;;1.75;100.00
22283;BME280;11310;51.528;21.204;2023-03-04T06:51:33;99425.44;;;1.76;100.00
22283;BME280;11310;51.528;21.204;2023-03-04T06:54:01;99427.19;;;1.77;100.00
22283;BME280;11310;51.528;21.204;2023-03-04T06:56:31;99421.16;;;1.76;100.00
22283;BME280;11310;51.528;21.204;2023-03-04T06:59:00;99425.41;;;1.79;100.00
22283;BME280;11310;51.528;21.204;2023-03-04T07:01:29;99409.84;;;1.80;100.00
22283;BME280;11310;51.528;21.204;2023-03-04T07:03:58;99410.63;;;1.84;100.00
22283;BME280;11310;51.528;21.204;2023-03-04T07:06:27;99416.66;;;1.86;100.00
22283;BME280;11310;51.528;21.204;2023-03-04T07:08:57;99416.66;;;1.86;100.00
22283;BME280;11310;51.528;21.204;2023-03-04T07:11:26;99415.81;;;1.84;100.00
22283;BME280;11310;51.528;21.204;2023-03-04T07:13:56;99415.78;;;1.85;100.00
22283;BME280;11310;51.528;21.204;2023-03-04T07:16:25;99408.88;;;1.86;100.00
22283;BME280;11310;51.528;21.204;2023-03-04T07:18:54;99405.41;;;1.87;100.00
22283;BME280;11310;51.528;21.204;2023-03-04T07:21:24;99410.63;;;1.85;100.00
22283;BME280;11310;51.528;21.204;2023-03-04T07:23:52;99420.94;;;1.87;100.00
22283;BME280;11310;51.528;21.204;2023-03-04T07:26:21;99417.44;;;1.88;100.00
22283;BME280;11310;51.528;21.204;2023-03-04T07:28:50;99419.16;;;1.89;100.00
22283;BME280;11310;51.528;21.204;2023-03-04T07:31:24;99412.28;;;1.88;100.00
22283;BME280;11310;51.528;21.204;2023-03-04T07:33:55;99409.69;;;1.88;100.00
22283;BME280;11310;51.528;21.204;2023-03-04T07:36:25;99420.84;;;1.90;100.00
22283;BME280;11310;51.528;21.204;2023-03-04T07:38:53;99406.19;;;1.90;100.00
22283;BME280;11310;51.528;21.204;2023-03-04T07:41:25;99405.31;;;1.90;100.00
22283;BME280;11310;51.528;21.204;2023-03-04T07:43:55;99407.88;;;1.91;100.00
22283;BME280;11310;51.528;21.204;2023-03-04T07:46:25;99417.38;;;1.92;100.00
22283;BME280;11310;51.528;21.204;2023-03-04T07:48:54;99402.72;;;1.91;100.00
22283;BME280;11310;51.528;21.204;2023-03-04T07:51:25;99403.59;;;1.90;100.00
22283;BME280;11310;51.528;21.204;2023-03-04T07:53:57;99400.09;;;1.93;100.00
22283;BME280;11310;51.528;21.204;2023-03-04T07:56:27;99407.81;;;1.96;100.00
22283;BME280;11310;51.528;21.204;2023-03-04T07:58:56;99404.31;;;1.97;100.00
22283;BME280;11310;51.528;21.204;2023-03-04T08:01:29;99412.09;;;1.97;100.00
22283;BME280;11310;51.528;21.204;2023-03-04T08:03:58;99400.84;;;1.98;100.00
22283;BME280;11310;51.528;21.204;2023-03-04T08:06:27;99415.47;;;1.99;100.00
22283;BME280;11310;51.528;21.204;2023-03-04T08:08:57;99410.31;;;1.99;100.00
22283;BME280;11310;51.528;21.204;2023-03-04T08:11:28;99413.72;;;2.01;100.00
22283;BME280;11310;51.528;21.204;2023-03-04T08:13:57;99402.50;;;2.02;100.00
22283;BME280;11310;51.528;21.204;2023-03-04T08:16:26;99405.91;;;2.04;100.00
22283;BME280;11310;51.528;21.204;2023-03-04T08:18:58;99400.75;;;2.04;100.00
22283;BME280;11310;51.528;21.204;2023-03-04T08:21:27;99398.97;;;2.04;100.00
22283;BME280;11310;51.528;21.204;2023-03-04T08:23:57;99397.22;;;2.06;100.00
22283;BME280;11310;51.528;21.204;2023-03-04T08:26:29;99400.69;;;2.05;100.00
22283;BME280;11310;51.528;21.204;2023-03-04T08:29:01;99402.41;;;2.06;100.00
22283;BME280;11310;51.528;21.204;2023-03-04T08:31:31;99400.59;;;2.10;100.00
22283;BME280;11310;51.528;21.204;2023-03-04T08:34:02;99402.28;;;2.11;100.00
22283;BME280;11310;51.528;21.204;2023-03-04T08:36:31;99395.34;;;2.13;100.00
22283;BME280;11310;51.528;21.204;2023-03-04T08:39:00;99391.88;;;2.14;100.00
22283;BME280;11310;51.528;21.204;2023-03-04T08:41:28;99393.53;;;2.16;100.00
22283;BME280;11310;51.528;21.204;2023-03-04T08:43:58;99393.53;;;2.18;100.00
22283;BME280;11310;51.528;21.204;2023-03-04T08:46:27;99387.50;;;2.16;100.00
22283;BME280;11310;51.528;21.204;2023-03-04T08:48:56;99393.53;;;2.16;100.00
22283;BME280;11310;51.528;21.204;2023-03-04T08:51:26;99390.13;;;2.14;100.00
22283;BME280;11310;51.528;21.204;2023-03-04T08:53:55;99388.44;;;2.13;100.00
22283;BME280;11310;51.528;21.204;2023-03-04T08:56:23;99385.81;;;2.15;100.00
22283;BME280;11310;51.528;21.204;2023-03-04T08:58:52;99384.09;;;2.15;100.00
22283;BME280;11310;51.528;21.204;2023-03-04T09:01:21;99386.63;;;2.17;100.00
22283;BME280;11310;51.528;21.204;2023-03-04T09:03:49;99385.75;;;2.18;100.00
22283;BME280;11310;51.528;21.204;2023-03-04T09:06:18;99390.03;;;2.19;100.00
22283;BME280;11310;51.528;21.204;2023-03-04T09:08:49;99391.78;;;2.17;100.00
22283;BME280;11310;51.528;21.204;2023-03-04T09:11:18;99387.44;;;2.19;100.00
22283;BME280;11310;51.528;21.204;2023-03-04T09:13:47;99392.63;;;2.19;100.00
22283;BME280;11310;51.528;21.204;2023-03-04T09:16:17;99386.59;;;2.18;100.00
22283;BME280;11310;51.528;21.204;2023-03-04T09:18:46;99390.94;;;2.18;100.00
22283;BME280;11310;51.528;21.204;2023-03-04T09:21:16;99386.59;;;2.18;100.00
22283;BME280;11310;51.528;21.204;2023-03-04T09:23:45;99393.47;;;2.19;100.00
22283;BME280;11310;51.528;21.204;2023-03-04T09:26:19;99387.44;;;2.19;100.00
22283;BME280;11310;51.528;21.204;2023-03-04T09:28:51;99383.09;;;2.21;100.00
22283;BME280;11310;51.528;21.204;2023-03-04T09:31:20;99385.66;;;2.21;100.00
22283;BME280;11310;51.528;21.204;2023-03-04T09:33:50;99382.16;;;2.23;100.00
22283;BME280;11310;51.528;21.204;2023-03-04T09:36:19;99377.00;;;2.22;100.00
22283;BME280;11310;51.528;21.204;2023-03-04T09:38:48;99376.03;;;2.27;100.00
22283;BME280;11310;51.528;21.204;2023-03-04T09:41:21;99374.34;;;2.26;100.00
22283;BME280;11310;51.528;21.204;2023-03-04T09:43:51;99374.31;;;2.28;100.00
22283;BME280;11310;51.528;21.204;2023-03-04T09:46:27;99374.28;;;2.29;100.00
22283;BME280;11310;51.528;21.204;2023-03-04T09:48:57;99369.84;;;2.34;100.00
22283;BME280;11310;51.528;21.204;2023-03-04T09:51:40;99372.34;;;2.37;100.00
22283;BME280;11310;51.528;21.204;2023-03-04T09:54:17;99365.44;;;2.38;100.00
22283;BME280;11310;51.528;21.204;2023-03-04T09:56:54;99357.72;;;2.35;100.00
22283;BME280;11310;51.528;21.204;2023-03-04T09:59:28;99351.56;;;2.40;100.00
22283;BME280;11310;51.528;21.204;2023-03-04T10:01:59;99354.97;;;2.42;100.00
22283;BME280;11310;51.528;21.204;2023-03-04T10:04:33;99360.06;;;2.45;100.00
22283;BME280;11310;51.528;21.204;2023-03-04T10:07:12;99346.19;;;2.48;100.00
22283;BME280;11310;51.528;21.204;2023-03-04T10:09:47;99346.09;;;2.52;100.00
22283;BME280;11310;51.528;21.204;2023-03-04T10:12:21;99335.66;;;2.55;100.00
22283;BME280;11310;51.528;21.204;2023-03-04T10:14:53;99335.63;;;2.57;100.00
22283;BME280;11310;51.528;21.204;2023-03-04T10:17:31;99339.84;;;2.61;100.00
22283;BME280;11310;51.528;21.204;2023-03-04T10:20:04;99329.41;;;2.64;100.00
22283;BME280;11310;51.528;21.204;2023-03-04T10:22:36;99326.72;;;2.67;100.00
22283;BME280;11310;51.528;21.204;2023-03-04T10:25:16;99314.63;;;2.69;100.00
22283;BME280;11310;51.528;21.204;2023-03-04T10:27:51;99311.84;;;2.75;100.00
22283;BME280;11310;51.528;21.204;2023-03-04T10:30:29;99310.88;;;2.79;100.00
22283;BME280;11310;51.528;21.204;2023-03-04T10:32:59;99295.31;;;2.80;100.00
22283;BME280;11310;51.528;21.204;2023-03-04T10:35:33;99296.06;;;2.84;100.00
22283;BME280;11310;51.528;21.204;2023-03-04T10:38:11;99296.00;;;2.87;100.00
22283;BME280;11310;51.528;21.204;2023-03-04T10:40:41;99295.75;;;2.96;100.00
22283;BME280;11310;51.528;21.204;2023-03-04T10:43:15;99295.69;;;2.97;100.00
22283;BME280;11310;51.528;21.204;2023-03-04T10:45:45;99292.19;;;3.00;100.00
22283;BME280;11310;51.528;21.204;2023-03-04T10:48:23;99280.81;;;3.04;100.00
22283;BME280;11310;51.528;21.204;2023-03-04T10:50:52;99273.88;;;3.06;100.00
22283;BME280;11310;51.528;21.204;2023-03-04T10:53:28;99261.72;;;3.08;100.00
22283;BME280;11310;51.528;21.204;2023-03-04T10:56:00;99268.59;;;3.09;100.00
22283;BME280;11310;51.528;21.204;2023-03-04T10:58:30;99265.00;;;3.14;100.00
22283;BME280;11310;51.528;21.204;2023-03-04T11:01:01;99268.28;;;3.19;100.00
22283;BME280;11310;51.528;21.204;2023-03-04T11:03:33;99271.78;;;3.18;100.00
22283;BME280;11310;51.528;21.204;2023-03-04T11:06:05;99267.53;;;3.16;100.00
22283;BME280;11310;51.528;21.204;2023-03-04T11:08:34;99264.16;;;3.14;100.00
22283;BME280;11310;51.528;21.204;2023-03-04T11:11:20;99257.25;;;3.13;100.00
22283;BME280;11310;51.528;21.204;2023-03-04T11:13:52;99262.44;;;3.13;100.00
22283;BME280;11310;51.528;21.204;2023-03-04T11:16:25;99261.59;;;3.12;100.00
22283;BME280;11310;51.528;21.204;2023-03-04T11:18:58;99265.09;;;3.11;100.00
22283;BME280;11310;51.528;21.204;2023-03-04T11:21:29;99260.78;;;3.10;100.00
22283;BME280;11310;51.528;21.204;2023-03-04T11:24:00;99259.97;;;3.10;100.00
22283;BME280;11310;51.528;21.204;2023-03-04T11:26:32;99265.94;;;3.12;100.00
22283;BME280;11310;51.528;21.204;2023-03-04T11:29:10;99258.97;;;3.14;100.00
22283;BME280;11310;51.528;21.204;2023-03-04T11:31:46;99248.50;;;3.17;100.00
22283;BME280;11310;51.528;21.204;2023-03-04T11:34:28;99247.59;;;3.18;100.00
22283;BME280;11310;51.528;21.204;2023-03-04T11:37:02;99245.81;;;3.21;100.00
22283;BME280;11310;51.528;21.204;2023-03-04T11:39:35;99239.69;;;3.24;100.00
22283;BME280;11310;51.528;21.204;2023-03-04T11:42:12;99235.25;;;3.27;100.00
22283;BME280;11310;51.528;21.204;2023-03-04T11:44:46;99235.19;;;3.29;100.00
22283;BME280;11310;51.528;21.204;2023-03-04T11:47:27;99237.78;;;3.29;100.00
22283;BME280;11310;51.528;21.204;2023-03-04T11:50:19;99226.53;;;3.30;100.00
22283;BME280;11310;51.528;21.204;2023-03-04T11:53:19;99222.16;;;3.32;100.00
22283;BME280;11310;51.528;21.204;2023-03-04T11:56:06;99227.38;;;3.30;100.00
22283;BME280;11310;51.528;21.204;2023-03-04T11:58:57;99215.97;;;3.36;100.00
22283;BME280;11310;51.528;21.204;2023-03-04T12:01:33;99211.59;;;3.38;100.00
22283;BME280;11310;51.528;21.204;2023-03-04T12:04:31;99215.00;;;3.40;100.00
22283;BME280;11310;51.528;21.204;2023-03-04T12:07:37;99213.28;;;3.39;100.00
22283;BME280;11310;51.528;21.204;2023-03-04T12:10:20;99203.72;;;3.41;100.00
22283;BME280;11310;51.528;21.204;2023-03-04T12:13:04;99208.91;;;3.41;100.00
22283;BME280;11310;51.528;21.204;2023-03-04T12:15:43;99198.44;;;3.44;100.00
22283;BME280;11310;51.528;21.204;2023-03-04T12:18:43;99200.00;;;3.49;100.00
22283;BME280;11310;51.528;21.204;2023-03-04T12:21:24;99199.94;;;3.52;100.00
22283;BME280;11310;51.528;21.204;2023-03-04T12:27:14;99202.44;;;3.54;100.00
22283;BME280;11310;51.528;21.204;2023-03-04T12:29:49;99202.44;;;3.54;100.00
22283;BME280;11310;51.528;21.204;2023-03-04T12:32:24;99207.63;;;3.54;100.00
22283;BME280;11310;51.528;21.204;2023-03-04T12:35:17;99195.50;;;3.56;100.00
22283;BME280;11310;51.528;21.204;2023-03-04T12:38:16;99187.78;;;3.53;100.00
22283;BME280;11310;51.528;21.204;2023-03-04T12:40:57;99190.44;;;3.51;100.00
22283;BME280;11310;51.528;21.204;2023-03-04T12:43:45;99184.22;;;3.57;100.00
22283;BME280;11310;51.528;21.204;2023-03-04T12:46:23;99194.50;;;3.60;100.00
22283;BME280;11310;51.528;21.204;2023-03-04T12:49:07;99181.53;;;3.60;100.00
22283;BME280;11310;51.528;21.204;2023-03-04T12:51:51;99186.66;;;3.61;100.00
22283;BME280;11310;51.528;21.204;2023-03-04T12:54:29;99181.41;;;3.63;100.00
22283;BME280;11310;51.528;21.204;2023-03-04T12:57:01;99178.75;;;3.66;100.00
22283;BME280;11310;51.528;21.204;2023-03-04T12:59:39;99180.38;;;3.68;100.00
22283;BME280;11310;51.528;21.204;2023-03-04T13:02:23;99187.25;;;3.69;100.00
22283;BME280;11310;51.528;21.204;2023-03-04T13:05:00;99182.03;;;3.71;100.00
22283;BME280;11310;51.528;21.204;2023-03-04T13:07:39;99184.63;;;3.71;100.00
22283;BME280;11310;51.528;21.204;2023-03-04T13:10:12;99174.25;;;3.71;100.00
22283;BME280;11310;51.528;21.204;2023-03-04T13:12:48;99163.88;;;3.71;100.00
22283;BME280;11310;51.528;21.204;2023-03-04T13:15:28;99173.34;;;3.72;100.00
22283;BME280;11310;51.528;21.204;2023-03-04T13:18:00;99156.88;;;3.73;100.00